sensor_id;sensor_type;location;lat;lon;timestamp;P1;durP1;ratioP1;P2;durP2;ratioP2
69779;SDS011;57052;55.602;38.096;2022-10-16T00:01:47;13.15;;;5.65;;
69779;SDS011;57052;55.602;38.096;2022-10-16T00:04:13;11.30;;;5.63;;
69779;SDS011;57052;55.602;38.096;2022-10-16T00:06:39;11.95;;;5.63;;
69779;SDS011;57052;55.602;38.096;2022-10-16T00:09:05;14.52;;;5.85;;
69779;SDS011;57052;55.602;38.096;2022-10-16T00:11:32;10.75;;;5.50;;
69779;SDS011;57052;55.602;38.096;2022-10-16T00:14:03;12.07;;;5.60;;
69779;SDS011;57052;55.602;38.096;2022-10-16T00:16:31;11.85;;;5.80;;
69779;SDS011;57052;55.602;38.096;2022-10-16T00:18:56;10.93;;;5.68;;
69779;SDS011;57052;55.602;38.096;2022-10-16T00:21:24;14.88;;;7.10;;
69779;SDS011;57052;55.602;38.096;2022-10-16T00:24:09;15.60;;;5.63;;
69779;SDS011;57052;55.602;38.096;2022-10-16T00:26:37;11.55;;;5.40;;
69779;SDS011;57052;55.602;38.096;2022-10-16T00:29:04;8.50;;;5.45;;
69779;SDS011;57052;55.602;38.096;2022-10-16T00:31:31;13.77;;;5.50;;
69779;SDS011;57052;55.602;38.096;2022-10-16T00:33:56;12.40;;;5.97;;
69779;SDS011;57052;55.602;38.096;2022-10-16T00:36:23;12.90;;;5.68;;
69779;SDS011;57052;55.602;38.096;2022-10-16T00:38:50;13.00;;;5.85;;
69779;SDS011;57052;55.602;38.096;2022-10-16T00:41:20;13.77;;;6.43;;
69779;SDS011;57052;55.602;38.096;2022-10-16T00:43:51;13.95;;;6.22;;
69779;SDS011;57052;55.602;38.096;2022-10-16T00:48:48;11.20;;;5.82;;
69779;SDS011;57052;55.602;38.096;2022-10-16T00:51:18;11.73;;;6.15;;
69779;SDS011;57052;55.602;38.096;2022-10-16T00:53:46;13.85;;;6.30;;
69779;SDS011;57052;55.602;38.096;2022-10-16T00:56:13;13.15;;;6.32;;
69779;SDS011;57052;55.602;38.096;2022-10-16T00:58:39;12.10;;;6.45;;
69779;SDS011;57052;55.602;38.096;2022-10-16T01:01:04;18.45;;;5.53;;
69779;SDS011;57052;55.602;38.096;2022-10-16T01:03:31;12.40;;;5.90;;
69779;SDS011;57052;55.602;38.096;2022-10-16T01:13:50;10.48;;;5.53;;
69779;SDS011;57052;55.602;38.096;2022-10-16T01:16:39;13.52;;;6.00;;
69779;SDS011;57052;55.602;38.096;2022-10-16T01:21:59;18.80;;;5.97;;
69779;SDS011;57052;55.602;38.096;2022-10-16T01:24:28;11.95;;;5.82;;
69779;SDS011;57052;55.602;38.096;2022-10-16T01:27:23;12.05;;;5.78;;
69779;SDS011;57052;55.602;38.096;2022-10-16T01:32:33;12.10;;;5.32;;
69779;SDS011;57052;55.602;38.096;2022-10-16T01:35:11;11.63;;;5.60;;
69779;SDS011;57052;55.602;38.096;2022-10-16T01:37:54;10.43;;;5.03;;
69779;SDS011;57052;55.602;38.096;2022-10-16T01:40:28;10.35;;;5.22;;
69779;SDS011;57052;55.602;38.096;2022-10-16T01:43:17;13.55;;;5.68;;
69779;SDS011;57052;55.602;38.096;2022-10-16T01:45:47;9.90;;;5.00;;
69779;SDS011;57052;55.602;38.096;2022-10-16T01:48:14;10.20;;;5.35;;
69779;SDS011;57052;55.602;38.096;2022-10-16T01:50:44;11.02;;;5.00;;
69779;SDS011;57052;55.602;38.096;2022-10-16T01:53:16;10.73;;;5.38;;
69779;SDS011;57052;55.602;38.096;2022-10-16T01:55:44;10.85;;;5.05;;
69779;SDS011;57052;55.602;38.096;2022-10-16T01:58:13;12.38;;;5.07;;
69779;SDS011;57052;55.602;38.096;2022-10-16T02:00:39;11.07;;;5.60;;
69779;SDS011;57052;55.602;38.096;2022-10-16T02:03:08;11.70;;;5.75;;
69779;SDS011;57052;55.602;38.096;2022-10-16T02:05:56;11.55;;;5.20;;
69779;SDS011;57052;55.602;38.096;2022-10-16T02:08:24;11.23;;;5.30;;
69779;SDS011;57052;55.602;38.096;2022-10-16T02:10:54;11.35;;;5.00;;
69779;SDS011;57052;55.602;38.096;2022-10-16T02:15:56;9.55;;;4.60;;
69779;SDS011;57052;55.602;38.096;2022-10-16T02:18:22;12.40;;;4.80;;
69779;SDS011;57052;55.602;38.096;2022-10-16T02:20:51;12.38;;;4.60;;
69779;SDS011;57052;55.602;38.096;2022-10-16T02:23:34;8.15;;;4.88;;
69779;SDS011;57052;55.602;38.096;2022-10-16T02:26:02;11.60;;;4.93;;
69779;SDS011;57052;55.602;38.096;2022-10-16T02:28:38;10.20;;;5.05;;
69779;SDS011;57052;55.602;38.096;2022-10-16T02:31:08;7.85;;;4.50;;
69779;SDS011;57052;55.602;38.096;2022-10-16T02:33:37;8.82;;;4.82;;
69779;SDS011;57052;55.602;38.096;2022-10-16T02:36:05;9.00;;;4.55;;
69779;SDS011;57052;55.602;38.096;2022-10-16T02:38:31;10.23;;;4.60;;
69779;SDS011;57052;55.602;38.096;2022-10-16T02:40:57;10.18;;;4.45;;
69779;SDS011;57052;55.602;38.096;2022-10-16T02:43:24;10.15;;;4.63;;
69779;SDS011;57052;55.602;38.096;2022-10-16T02:45:50;8.77;;;4.50;;
69779;SDS011;57052;55.602;38.096;2022-10-16T02:48:15;12.30;;;4.90;;
69779;SDS011;57052;55.602;38.096;2022-10-16T02:50:41;13.27;;;4.55;;
69779;SDS011;57052;55.602;38.096;2022-10-16T02:53:07;15.02;;;4.60;;
69779;SDS011;57052;55.602;38.096;2022-10-16T02:55:32;11.07;;;4.50;;
69779;SDS011;57052;55.602;38.096;2022-10-16T02:57:58;9.93;;;4.75;;
69779;SDS011;57052;55.602;38.096;2022-10-16T03:00:23;14.18;;;4.85;;
69779;SDS011;57052;55.602;38.096;2022-10-16T03:02:49;13.90;;;5.28;;
69779;SDS011;57052;55.602;38.096;2022-10-16T03:05:15;12.48;;;4.60;;
69779;SDS011;57052;55.602;38.096;2022-10-16T03:07:41;7.78;;;4.45;;
69779;SDS011;57052;55.602;38.096;2022-10-16T03:10:06;9.27;;;4.95;;
69779;SDS011;57052;55.602;38.096;2022-10-16T03:12:32;11.32;;;5.25;;
69779;SDS011;57052;55.602;38.096;2022-10-16T03:14:58;8.95;;;4.50;;
69779;SDS011;57052;55.602;38.096;2022-10-16T03:17:24;11.27;;;4.80;;
69779;SDS011;57052;55.602;38.096;2022-10-16T03:19:50;9.13;;;4.85;;
69779;SDS011;57052;55.602;38.096;2022-10-16T03:22:16;8.82;;;4.82;;
69779;SDS011;57052;55.602;38.096;2022-10-16T03:24:41;8.75;;;4.65;;
69779;SDS011;57052;55.602;38.096;2022-10-16T03:27:07;12.02;;;4.57;;
69779;SDS011;57052;55.602;38.096;2022-10-16T03:29:33;9.48;;;4.90;;
69779;SDS011;57052;55.602;38.096;2022-10-16T03:31:58;9.80;;;5.05;;
69779;SDS011;57052;55.602;38.096;2022-10-16T03:34:24;7.68;;;4.28;;
69779;SDS011;57052;55.602;38.096;2022-10-16T03:36:50;11.65;;;4.78;;
69779;SDS011;57052;55.602;38.096;2022-10-16T03:39:16;11.23;;;5.05;;
69779;SDS011;57052;55.602;38.096;2022-10-16T03:41:42;8.50;;;4.80;;
69779;SDS011;57052;55.602;38.096;2022-10-16T03:44:07;9.23;;;4.68;;
69779;SDS011;57052;55.602;38.096;2022-10-16T03:46:33;10.32;;;4.13;;
69779;SDS011;57052;55.602;38.096;2022-10-16T03:48:58;11.15;;;4.32;;
69779;SDS011;57052;55.602;38.096;2022-10-16T03:51:24;11.32;;;4.70;;
69779;SDS011;57052;55.602;38.096;2022-10-16T03:53:49;11.07;;;4.70;;
69779;SDS011;57052;55.602;38.096;2022-10-16T03:56:15;10.20;;;5.30;;
69779;SDS011;57052;55.602;38.096;2022-10-16T03:58:41;11.43;;;5.55;;
69779;SDS011;57052;55.602;38.096;2022-10-16T04:01:06;12.60;;;5.65;;
69779;SDS011;57052;55.602;38.096;2022-10-16T04:03:32;8.70;;;5.30;;
69779;SDS011;57052;55.602;38.096;2022-10-16T04:05:57;10.95;;;5.70;;
69779;SDS011;57052;55.602;38.096;2022-10-16T04:08:23;9.18;;;4.80;;
69779;SDS011;57052;55.602;38.096;2022-10-16T04:10:49;9.43;;;5.25;;
69779;SDS011;57052;55.602;38.096;2022-10-16T04:13:14;12.48;;;5.25;;
69779;SDS011;57052;55.602;38.096;2022-10-16T04:15:40;15.32;;;5.65;;
69779;SDS011;57052;55.602;38.096;2022-10-16T04:18:05;13.02;;;5.63;;
69779;SDS011;57052;55.602;38.096;2022-10-16T04:20:32;9.65;;;5.38;;
69779;SDS011;57052;55.602;38.096;2022-10-16T04:22:58;10.40;;;5.55;;
69779;SDS011;57052;55.602;38.096;2022-10-16T04:25:23;10.27;;;5.57;;
69779;SDS011;57052;55.602;38.096;2022-10-16T04:27:49;12.60;;;5.43;;
69779;SDS011;57052;55.602;38.096;2022-10-16T04:30:14;12.02;;;5.90;;
69779;SDS011;57052;55.602;38.096;2022-10-16T04:32:40;12.10;;;5.82;;
69779;SDS011;57052;55.602;38.096;2022-10-16T04:35:06;11.43;;;6.07;;
69779;SDS011;57052;55.602;38.096;2022-10-16T04:37:32;13.73;;;6.50;;
69779;SDS011;57052;55.602;38.096;2022-10-16T04:39:57;17.27;;;6.18;;
69779;SDS011;57052;55.602;38.096;2022-10-16T04:42:23;13.93;;;6.10;;
69779;SDS011;57052;55.602;38.096;2022-10-16T04:44:48;12.85;;;6.38;;
69779;SDS011;57052;55.602;38.096;2022-10-16T04:47:14;16.90;;;6.55;;
69779;SDS011;57052;55.602;38.096;2022-10-16T04:49:40;13.75;;;6.38;;
69779;SDS011;57052;55.602;38.096;2022-10-16T04:52:05;15.30;;;6.22;;
69779;SDS011;57052;55.602;38.096;2022-10-16T04:54:31;17.88;;;6.50;;
69779;SDS011;57052;55.602;38.096;2022-10-16T04:56:57;12.63;;;6.65;;
69779;SDS011;57052;55.602;38.096;2022-10-16T04:59:22;20.55;;;7.32;;
69779;SDS011;57052;55.602;38.096;2022-10-16T05:01:48;18.15;;;7.53;;
69779;SDS011;57052;55.602;38.096;2022-10-16T05:04:14;12.88;;;6.95;;
69779;SDS011;57052;55.602;38.096;2022-10-16T05:06:40;17.30;;;7.78;;
69779;SDS011;57052;55.602;38.096;2022-10-16T05:09:06;14.95;;;7.25;;
69779;SDS011;57052;55.602;38.096;2022-10-16T05:11:33;15.30;;;6.97;;
69779;SDS011;57052;55.602;38.096;2022-10-16T05:13:59;14.18;;;6.82;;
69779;SDS011;57052;55.602;38.096;2022-10-16T05:16:24;15.80;;;6.88;;
69779;SDS011;57052;55.602;38.096;2022-10-16T05:18:53;12.98;;;6.55;;
69779;SDS011;57052;55.602;38.096;2022-10-16T05:21:19;14.35;;;7.00;;
69779;SDS011;57052;55.602;38.096;2022-10-16T05:23:45;14.35;;;6.95;;
69779;SDS011;57052;55.602;38.096;2022-10-16T05:26:10;12.68;;;6.22;;
69779;SDS011;57052;55.602;38.096;2022-10-16T05:28:36;15.80;;;6.93;;
69779;SDS011;57052;55.602;38.096;2022-10-16T05:31:08;13.38;;;6.75;;
69779;SDS011;57052;55.602;38.096;2022-10-16T05:33:34;14.73;;;6.70;;
69779;SDS011;57052;55.602;38.096;2022-10-16T05:36:01;12.30;;;6.22;;
69779;SDS011;57052;55.602;38.096;2022-10-16T05:38:31;16.23;;;7.65;;
69779;SDS011;57052;55.602;38.096;2022-10-16T05:40:56;13.55;;;6.72;;
69779;SDS011;57052;55.602;38.096;2022-10-16T05:43:22;15.73;;;7.40;;
69779;SDS011;57052;55.602;38.096;2022-10-16T05:45:57;13.25;;;7.50;;
69779;SDS011;57052;55.602;38.096;2022-10-16T05:48:28;15.10;;;7.35;;
69779;SDS011;57052;55.602;38.096;2022-10-16T05:50:58;17.75;;;7.85;;
69779;SDS011;57052;55.602;38.096;2022-10-16T05:53:25;13.07;;;7.05;;
69779;SDS011;57052;55.602;38.096;2022-10-16T05:55:52;13.05;;;7.47;;
69779;SDS011;57052;55.602;38.096;2022-10-16T05:58:19;10.23;;;5.38;;
69779;SDS011;57052;55.602;38.096;2022-10-16T06:00:44;10.05;;;4.88;;
69779;SDS011;57052;55.602;38.096;2022-10-16T06:03:17;10.65;;;4.88;;
69779;SDS011;57052;55.602;38.096;2022-10-16T06:05:43;12.45;;;6.05;;
69779;SDS011;57052;55.602;38.096;2022-10-16T06:08:08;11.95;;;5.05;;
69779;SDS011;57052;55.602;38.096;2022-10-16T06:10:34;10.07;;;4.90;;
69779;SDS011;57052;55.602;38.096;2022-10-16T06:12:59;12.45;;;5.35;;
69779;SDS011;57052;55.602;38.096;2022-10-16T06:15:25;8.18;;;4.45;;
69779;SDS011;57052;55.602;38.096;2022-10-16T06:17:51;10.13;;;4.38;;
69779;SDS011;57052;55.602;38.096;2022-10-16T06:20:16;9.80;;;4.18;;
69779;SDS011;57052;55.602;38.096;2022-10-16T06:22:42;10.90;;;4.50;;
69779;SDS011;57052;55.602;38.096;2022-10-16T06:25:07;10.40;;;4.63;;
69779;SDS011;57052;55.602;38.096;2022-10-16T06:27:33;13.60;;;4.68;;
69779;SDS011;57052;55.602;38.096;2022-10-16T06:29:58;9.35;;;4.05;;
69779;SDS011;57052;55.602;38.096;2022-10-16T06:32:24;12.65;;;4.28;;
69779;SDS011;57052;55.602;38.096;2022-10-16T06:34:49;9.52;;;4.13;;
69779;SDS011;57052;55.602;38.096;2022-10-16T06:37:15;6.30;;;3.72;;
69779;SDS011;57052;55.602;38.096;2022-10-16T06:39:40;7.63;;;4.07;;
69779;SDS011;57052;55.602;38.096;2022-10-16T06:42:06;7.88;;;4.00;;
69779;SDS011;57052;55.602;38.096;2022-10-16T06:44:31;9.88;;;4.63;;
69779;SDS011;57052;55.602;38.096;2022-10-16T06:46:57;9.30;;;4.13;;
69779;SDS011;57052;55.602;38.096;2022-10-16T06:49:22;11.50;;;4.40;;
69779;SDS011;57052;55.602;38.096;2022-10-16T06:51:48;7.57;;;4.40;;
69779;SDS011;57052;55.602;38.096;2022-10-16T06:54:14;11.00;;;4.53;;
69779;SDS011;57052;55.602;38.096;2022-10-16T06:56:40;9.32;;;3.75;;
69779;SDS011;57052;55.602;38.096;2022-10-16T06:59:06;9.82;;;4.68;;
69779;SDS011;57052;55.602;38.096;2022-10-16T07:01:32;9.18;;;4.28;;
69779;SDS011;57052;55.602;38.096;2022-10-16T07:03:57;8.60;;;4.47;;
69779;SDS011;57052;55.602;38.096;2022-10-16T07:06:24;8.88;;;3.92;;
69779;SDS011;57052;55.602;38.096;2022-10-16T07:08:51;11.00;;;4.75;;
69779;SDS011;57052;55.602;38.096;2022-10-16T07:11:18;8.00;;;3.90;;
69779;SDS011;57052;55.602;38.096;2022-10-16T07:13:46;8.60;;;3.70;;
69779;SDS011;57052;55.602;38.096;2022-10-16T07:18:40;9.48;;;4.38;;
69779;SDS011;57052;55.602;38.096;2022-10-16T07:21:08;8.55;;;4.70;;
69779;SDS011;57052;55.602;38.096;2022-10-16T07:23:45;9.20;;;4.43;;
69779;SDS011;57052;55.602;38.096;2022-10-16T07:26:38;11.43;;;4.35;;
69779;SDS011;57052;55.602;38.096;2022-10-16T07:29:08;10.70;;;4.03;;
69779;SDS011;57052;55.602;38.096;2022-10-16T07:31:40;8.35;;;4.30;;
69779;SDS011;57052;55.602;38.096;2022-10-16T07:34:06;9.30;;;4.18;;
69779;SDS011;57052;55.602;38.096;2022-10-16T07:36:32;9.43;;;4.22;;
69779;SDS011;57052;55.602;38.096;2022-10-16T07:38:58;8.05;;;4.03;;
69779;SDS011;57052;55.602;38.096;2022-10-16T07:41:23;9.25;;;3.70;;
69779;SDS011;57052;55.602;38.096;2022-10-16T07:43:50;7.53;;;3.90;;
69779;SDS011;57052;55.602;38.096;2022-10-16T07:46:17;8.85;;;4.15;;
69779;SDS011;57052;55.602;38.096;2022-10-16T07:48:44;8.55;;;3.88;;
69779;SDS011;57052;55.602;38.096;2022-10-16T07:51:12;9.10;;;3.60;;
69779;SDS011;57052;55.602;38.096;2022-10-16T07:53:40;7.80;;;3.75;;
69779;SDS011;57052;55.602;38.096;2022-10-16T07:56:06;9.75;;;4.00;;
69779;SDS011;57052;55.602;38.096;2022-10-16T07:58:33;8.65;;;4.28;;
69779;SDS011;57052;55.602;38.096;2022-10-16T08:01:09;9.10;;;4.30;;
69779;SDS011;57052;55.602;38.096;2022-10-16T08:03:36;8.10;;;3.40;;
69779;SDS011;57052;55.602;38.096;2022-10-16T08:06:02;8.18;;;3.80;;
69779;SDS011;57052;55.602;38.096;2022-10-16T08:08:29;12.50;;;3.67;;
69779;SDS011;57052;55.602;38.096;2022-10-16T08:10:55;8.75;;;4.63;;
69779;SDS011;57052;55.602;38.096;2022-10-16T08:13:21;9.77;;;4.53;;
69779;SDS011;57052;55.602;38.096;2022-10-16T08:15:47;10.77;;;3.63;;
69779;SDS011;57052;55.602;38.096;2022-10-16T08:18:13;9.70;;;3.92;;
69779;SDS011;57052;55.602;38.096;2022-10-16T08:20:40;8.50;;;3.80;;
69779;SDS011;57052;55.602;38.096;2022-10-16T08:23:06;8.68;;;3.50;;
69779;SDS011;57052;55.602;38.096;2022-10-16T08:25:34;8.40;;;3.55;;
69779;SDS011;57052;55.602;38.096;2022-10-16T08:28:03;9.68;;;3.72;;
69779;SDS011;57052;55.602;38.096;2022-10-16T08:30:30;9.93;;;3.95;;
69779;SDS011;57052;55.602;38.096;2022-10-16T08:32:55;7.18;;;3.55;;
69779;SDS011;57052;55.602;38.096;2022-10-16T08:35:21;9.90;;;3.58;;
69779;SDS011;57052;55.602;38.096;2022-10-16T08:37:47;6.45;;;3.25;;
69779;SDS011;57052;55.602;38.096;2022-10-16T08:40:20;7.82;;;3.30;;
69779;SDS011;57052;55.602;38.096;2022-10-16T08:46:08;7.93;;;3.45;;
69779;SDS011;57052;55.602;38.096;2022-10-16T08:48:53;6.35;;;3.47;;
69779;SDS011;57052;55.602;38.096;2022-10-16T08:51:22;8.85;;;3.92;;
69779;SDS011;57052;55.602;38.096;2022-10-16T08:56:22;7.80;;;3.53;;
69779;SDS011;57052;55.602;38.096;2022-10-16T08:58:48;6.88;;;3.40;;
69779;SDS011;57052;55.602;38.096;2022-10-16T09:01:15;9.93;;;3.72;;
69779;SDS011;57052;55.602;38.096;2022-10-16T09:06:46;7.25;;;3.15;;
69779;SDS011;57052;55.602;38.096;2022-10-16T09:09:19;6.35;;;3.22;;
69779;SDS011;57052;55.602;38.096;2022-10-16T09:14:52;10.50;;;3.38;;
69779;SDS011;57052;55.602;38.096;2022-10-16T09:17:44;7.47;;;3.40;;
69779;SDS011;57052;55.602;38.096;2022-10-16T09:23:17;8.02;;;3.47;;
69779;SDS011;57052;55.602;38.096;2022-10-16T09:25:48;5.80;;;3.20;;
69779;SDS011;57052;55.602;38.096;2022-10-16T09:28:15;6.35;;;3.10;;
69779;SDS011;57052;55.602;38.096;2022-10-16T09:30:42;7.55;;;2.90;;
69779;SDS011;57052;55.602;38.096;2022-10-16T09:33:09;6.82;;;3.25;;
69779;SDS011;57052;55.602;38.096;2022-10-16T09:35:40;8.85;;;2.95;;
69779;SDS011;57052;55.602;38.096;2022-10-16T09:38:06;12.30;;;2.58;;
69779;SDS011;57052;55.602;38.096;2022-10-16T09:40:33;5.78;;;2.92;;
69779;SDS011;57052;55.602;38.096;2022-10-16T09:46:07;6.65;;;2.70;;
69779;SDS011;57052;55.602;38.096;2022-10-16T09:51:01;6.00;;;2.85;;
69779;SDS011;57052;55.602;38.096;2022-10-16T09:53:42;5.43;;;2.67;;
69779;SDS011;57052;55.602;38.096;2022-10-16T09:56:11;10.15;;;2.70;;
69779;SDS011;57052;55.602;38.096;2022-10-16T09:58:50;6.68;;;2.40;;
69779;SDS011;57052;55.602;38.096;2022-10-16T10:01:19;6.45;;;2.65;;
69779;SDS011;57052;55.602;38.096;2022-10-16T10:03:48;5.82;;;2.60;;
69779;SDS011;57052;55.602;38.096;2022-10-16T10:06:25;6.35;;;2.47;;
69779;SDS011;57052;55.602;38.096;2022-10-16T10:09:05;9.70;;;2.70;;
69779;SDS011;57052;55.602;38.096;2022-10-16T10:14:05;9.10;;;2.58;;
69779;SDS011;57052;55.602;38.096;2022-10-16T10:16:34;6.43;;;2.58;;
69779;SDS011;57052;55.602;38.096;2022-10-16T10:19:00;7.38;;;2.35;;
69779;SDS011;57052;55.602;38.096;2022-10-16T10:21:26;5.82;;;2.60;;
69779;SDS011;57052;55.602;38.096;2022-10-16T10:23:55;4.85;;;2.30;;
69779;SDS011;57052;55.602;38.096;2022-10-16T10:26:23;6.57;;;2.30;;
69779;SDS011;57052;55.602;38.096;2022-10-16T10:34:19;5.90;;;2.20;;
69779;SDS011;57052;55.602;38.096;2022-10-16T10:40:11;5.60;;;2.47;;
69779;SDS011;57052;55.602;38.096;2022-10-16T10:45:27;7.15;;;2.60;;
69779;SDS011;57052;55.602;38.096;2022-10-16T10:48:24;6.65;;;2.42;;
69779;SDS011;57052;55.602;38.096;2022-10-16T10:51:09;5.90;;;2.33;;
69779;SDS011;57052;55.602;38.096;2022-10-16T10:59:19;8.95;;;2.42;;
69779;SDS011;57052;55.602;38.096;2022-10-16T11:02:31;4.88;;;2.50;;
69779;SDS011;57052;55.602;38.096;2022-10-16T11:07:39;4.70;;;2.30;;
69779;SDS011;57052;55.602;38.096;2022-10-16T11:10:15;5.43;;;2.33;;
69779;SDS011;57052;55.602;38.096;2022-10-16T11:12:46;6.07;;;2.63;;
69779;SDS011;57052;55.602;38.096;2022-10-16T11:15:25;6.05;;;2.78;;
69779;SDS011;57052;55.602;38.096;2022-10-16T11:23:31;5.75;;;2.60;;
69779;SDS011;57052;55.602;38.096;2022-10-16T11:26:05;4.38;;;2.30;;
69779;SDS011;57052;55.602;38.096;2022-10-16T11:28:47;4.90;;;2.55;;
69779;SDS011;57052;55.602;38.096;2022-10-16T11:36:58;5.85;;;2.47;;
69779;SDS011;57052;55.602;38.096;2022-10-16T11:39:32;6.53;;;2.70;;
69779;SDS011;57052;55.602;38.096;2022-10-16T11:42:18;4.22;;;1.95;;
69779;SDS011;57052;55.602;38.096;2022-10-16T11:45:00;5.22;;;2.17;;
69779;SDS011;57052;55.602;38.096;2022-10-16T11:50:13;5.38;;;2.67;;
69779;SDS011;57052;55.602;38.096;2022-10-16T11:55:18;6.82;;;2.70;;
69779;SDS011;57052;55.602;38.096;2022-10-16T11:57:54;4.15;;;2.40;;
69779;SDS011;57052;55.602;38.096;2022-10-16T12:00:33;7.85;;;3.33;;
69779;SDS011;57052;55.602;38.096;2022-10-16T12:03:26;4.82;;;2.40;;
69779;SDS011;57052;55.602;38.096;2022-10-16T12:06:13;6.22;;;2.50;;
69779;SDS011;57052;55.602;38.096;2022-10-16T12:08:45;5.70;;;2.33;;
69779;SDS011;57052;55.602;38.096;2022-10-16T12:14:04;7.05;;;2.85;;
69779;SDS011;57052;55.602;38.096;2022-10-16T12:16:37;5.32;;;2.28;;
69779;SDS011;57052;55.602;38.096;2022-10-16T12:19:17;4.30;;;2.40;;
69779;SDS011;57052;55.602;38.096;2022-10-16T12:21:44;6.10;;;2.45;;
69779;SDS011;57052;55.602;38.096;2022-10-16T12:27:03;4.20;;;2.45;;
69779;SDS011;57052;55.602;38.096;2022-10-16T12:29:46;6.75;;;2.30;;
69779;SDS011;57052;55.602;38.096;2022-10-16T12:32:27;5.22;;;2.45;;
69779;SDS011;57052;55.602;38.096;2022-10-16T12:37:22;4.05;;;2.03;;
69779;SDS011;57052;55.602;38.096;2022-10-16T12:39:51;4.80;;;2.28;;
69779;SDS011;57052;55.602;38.096;2022-10-16T12:42:22;5.50;;;2.67;;
69779;SDS011;57052;55.602;38.096;2022-10-16T12:44:56;5.70;;;2.30;;
69779;SDS011;57052;55.602;38.096;2022-10-16T12:56:16;4.78;;;2.97;;
69779;SDS011;57052;55.602;38.096;2022-10-16T13:01:32;5.28;;;2.50;;
69779;SDS011;57052;55.602;38.096;2022-10-16T13:07:23;6.40;;;2.30;;
69779;SDS011;57052;55.602;38.096;2022-10-16T13:12:49;8.25;;;2.97;;
69779;SDS011;57052;55.602;38.096;2022-10-16T13:18:15;5.93;;;2.67;;
69779;SDS011;57052;55.602;38.096;2022-10-16T13:25:57;6.90;;;2.92;;
69779;SDS011;57052;55.602;38.096;2022-10-16T13:28:40;6.25;;;3.00;;
69779;SDS011;57052;55.602;38.096;2022-10-16T13:31:10;6.20;;;3.20;;
69779;SDS011;57052;55.602;38.096;2022-10-16T13:33:43;8.15;;;3.13;;
69779;SDS011;57052;55.602;38.096;2022-10-16T13:36:47;8.13;;;3.22;;
69779;SDS011;57052;55.602;38.096;2022-10-16T13:39:23;8.40;;;2.78;;
69779;SDS011;57052;55.602;38.096;2022-10-16T13:44:51;9.80;;;3.65;;
69779;SDS011;57052;55.602;38.096;2022-10-16T13:47:23;6.47;;;3.45;;
69779;SDS011;57052;55.602;38.096;2022-10-16T13:50:00;10.45;;;3.65;;
69779;SDS011;57052;55.602;38.096;2022-10-16T13:52:31;9.05;;;3.42;;
69779;SDS011;57052;55.602;38.096;2022-10-16T13:54:57;7.90;;;3.50;;
69779;SDS011;57052;55.602;38.096;2022-10-16T13:57:24;7.63;;;3.42;;
69779;SDS011;57052;55.602;38.096;2022-10-16T13:59:50;8.80;;;3.83;;
69779;SDS011;57052;55.602;38.096;2022-10-16T14:02:26;11.55;;;4.30;;
69779;SDS011;57052;55.602;38.096;2022-10-16T14:04:57;11.80;;;4.28;;
69779;SDS011;57052;55.602;38.096;2022-10-16T14:07:24;9.00;;;3.65;;
69779;SDS011;57052;55.602;38.096;2022-10-16T14:09:52;8.77;;;4.38;;
69779;SDS011;57052;55.602;38.096;2022-10-16T14:12:19;14.40;;;4.30;;
69779;SDS011;57052;55.602;38.096;2022-10-16T14:14:47;8.48;;;3.90;;
69779;SDS011;57052;55.602;38.096;2022-10-16T14:17:18;8.02;;;3.35;;
69779;SDS011;57052;55.602;38.096;2022-10-16T14:19:50;8.10;;;3.80;;
69779;SDS011;57052;55.602;38.096;2022-10-16T14:22:38;11.45;;;4.22;;
69779;SDS011;57052;55.602;38.096;2022-10-16T14:28:14;9.88;;;4.07;;
69779;SDS011;57052;55.602;38.096;2022-10-16T14:30:50;9.50;;;4.60;;
69779;SDS011;57052;55.602;38.096;2022-10-16T14:33:24;12.80;;;5.35;;
69779;SDS011;57052;55.602;38.096;2022-10-16T14:36:33;11.15;;;4.78;;
69779;SDS011;57052;55.602;38.096;2022-10-16T14:39:05;10.57;;;4.55;;
69779;SDS011;57052;55.602;38.096;2022-10-16T14:41:44;13.10;;;5.20;;
69779;SDS011;57052;55.602;38.096;2022-10-16T14:44:12;8.25;;;4.15;;
69779;SDS011;57052;55.602;38.096;2022-10-16T14:46:41;10.63;;;4.22;;
69779;SDS011;57052;55.602;38.096;2022-10-16T14:51:37;7.75;;;3.72;;
69779;SDS011;57052;55.602;38.096;2022-10-16T14:54:10;7.28;;;3.47;;
69779;SDS011;57052;55.602;38.096;2022-10-16T14:56:42;9.27;;;3.95;;
69779;SDS011;57052;55.602;38.096;2022-10-16T14:59:11;9.90;;;4.43;;
69779;SDS011;57052;55.602;38.096;2022-10-16T15:01:43;11.63;;;4.32;;
69779;SDS011;57052;55.602;38.096;2022-10-16T15:04:10;10.63;;;5.20;;
69779;SDS011;57052;55.602;38.096;2022-10-16T15:06:38;13.15;;;4.88;;
69779;SDS011;57052;55.602;38.096;2022-10-16T15:09:03;9.73;;;4.47;;
69779;SDS011;57052;55.602;38.096;2022-10-16T15:11:29;11.18;;;4.32;;
69779;SDS011;57052;55.602;38.096;2022-10-16T15:13:57;14.30;;;5.10;;
69779;SDS011;57052;55.602;38.096;2022-10-16T15:16:23;12.10;;;4.50;;
69779;SDS011;57052;55.602;38.096;2022-10-16T15:18:48;9.23;;;4.10;;
69779;SDS011;57052;55.602;38.096;2022-10-16T15:21:19;9.48;;;4.25;;
69779;SDS011;57052;55.602;38.096;2022-10-16T15:23:49;11.05;;;4.78;;
69779;SDS011;57052;55.602;38.096;2022-10-16T15:26:15;14.13;;;5.40;;
69779;SDS011;57052;55.602;38.096;2022-10-16T15:28:41;13.88;;;6.13;;
69779;SDS011;57052;55.602;38.096;2022-10-16T15:31:07;11.18;;;5.72;;
69779;SDS011;57052;55.602;38.096;2022-10-16T15:33:32;15.32;;;6.20;;
69779;SDS011;57052;55.602;38.096;2022-10-16T15:36:00;18.80;;;6.47;;
69779;SDS011;57052;55.602;38.096;2022-10-16T15:38:27;12.43;;;5.97;;
69779;SDS011;57052;55.602;38.096;2022-10-16T15:40:53;19.85;;;7.03;;
69779;SDS011;57052;55.602;38.096;2022-10-16T15:43:20;21.75;;;7.85;;
69779;SDS011;57052;55.602;38.096;2022-10-16T15:45:51;26.30;;;11.98;;
69779;SDS011;57052;55.602;38.096;2022-10-16T15:48:27;28.52;;;12.25;;
69779;SDS011;57052;55.602;38.096;2022-10-16T15:50:53;30.27;;;13.18;;
69779;SDS011;57052;55.602;38.096;2022-10-16T15:53:19;34.28;;;12.60;;
69779;SDS011;57052;55.602;38.096;2022-10-16T15:55:44;26.77;;;10.95;;
69779;SDS011;57052;55.602;38.096;2022-10-16T15:58:10;16.25;;;8.23;;
69779;SDS011;57052;55.602;38.096;2022-10-16T16:00:35;20.73;;;8.90;;
69779;SDS011;57052;55.602;38.096;2022-10-16T16:03:01;21.88;;;7.57;;
69779;SDS011;57052;55.602;38.096;2022-10-16T16:05:27;18.05;;;6.70;;
69779;SDS011;57052;55.602;38.096;2022-10-16T16:07:52;17.90;;;7.15;;
69779;SDS011;57052;55.602;38.096;2022-10-16T16:10:19;13.02;;;6.05;;
69779;SDS011;57052;55.602;38.096;2022-10-16T16:12:49;14.15;;;5.75;;
69779;SDS011;57052;55.602;38.096;2022-10-16T16:15:17;11.13;;;5.60;;
69779;SDS011;57052;55.602;38.096;2022-10-16T16:17:46;11.63;;;4.95;;
69779;SDS011;57052;55.602;38.096;2022-10-16T16:20:12;13.73;;;5.50;;
69779;SDS011;57052;55.602;38.096;2022-10-16T16:22:39;13.18;;;5.72;;
69779;SDS011;57052;55.602;38.096;2022-10-16T16:25:05;12.52;;;5.53;;
69779;SDS011;57052;55.602;38.096;2022-10-16T16:27:30;11.65;;;6.03;;
69779;SDS011;57052;55.602;38.096;2022-10-16T16:29:59;14.38;;;6.25;;
69779;SDS011;57052;55.602;38.096;2022-10-16T16:32:29;13.07;;;6.13;;
69779;SDS011;57052;55.602;38.096;2022-10-16T16:34:55;14.25;;;6.10;;
69779;SDS011;57052;55.602;38.096;2022-10-16T16:37:20;14.70;;;6.75;;
69779;SDS011;57052;55.602;38.096;2022-10-16T16:39:46;13.50;;;5.88;;
69779;SDS011;57052;55.602;38.096;2022-10-16T16:42:12;18.08;;;6.97;;
69779;SDS011;57052;55.602;38.096;2022-10-16T16:44:38;18.77;;;8.00;;